createdAt,value
2022-07-27T00:01:15.732Z,12.10
2022-07-27T00:03:45.396Z,15.57
2022-07-27T00:06:13.734Z,13.43
2022-07-27T00:08:41.302Z,14.55
2022-07-27T00:11:10.344Z,14.18
2022-07-27T00:13:38.924Z,12.52
2022-07-27T00:16:07.561Z,14.55
2022-07-27T00:18:35.131Z,14.98
2022-07-27T00:21:02.332Z,14.73
2022-07-27T00:23:29.634Z,15.75
2022-07-27T00:25:57.262Z,12.80
2022-07-27T00:28:24.510Z,12.82
2022-07-27T00:30:51.784Z,13.68
2022-07-27T00:33:19.249Z,14.10
2022-07-27T00:35:46.696Z,14.27
2022-07-27T00:38:14.125Z,13.95
2022-07-27T00:40:41.746Z,12.88
2022-07-27T00:43:09.033Z,14.07
2022-07-27T00:45:36.401Z,12.90
2022-07-27T00:48:04.299Z,11.88
2022-07-27T00:50:31.814Z,10.30
2022-07-27T00:52:59.638Z,11.45
2022-07-27T00:55:27.723Z,12.63
2022-07-27T00:57:59.314Z,14.07
2022-07-27T01:00:28.527Z,13.65
2022-07-27T01:02:57.496Z,12.75
2022-07-27T01:05:35.964Z,12.32
2022-07-27T01:08:07.886Z,10.90
2022-07-27T01:10:36.166Z,13.48
2022-07-27T01:13:03.708Z,13.38
2022-07-27T01:15:36.818Z,12.52
2022-07-27T01:18:04.829Z,12.48
2022-07-27T01:20:33.838Z,11.32
2022-07-27T01:23:01.077Z,12.20
2022-07-27T01:25:28.330Z,12.70
2022-07-27T01:27:55.723Z,12.90
2022-07-27T01:30:30.502Z,12.68
2022-07-27T01:33:03.561Z,11.50
2022-07-27T01:35:30.937Z,13.32
2022-07-27T01:37:58.707Z,12.60
2022-07-27T01:40:26.190Z,12.57
2022-07-27T01:42:53.567Z,12.57
2022-07-27T01:45:21.983Z,11.25
2022-07-27T01:47:49.589Z,11.00
2022-07-27T01:50:16.975Z,11.48
2022-07-27T01:52:44.506Z,9.98
2022-07-27T01:55:12.340Z,11.07
2022-07-27T01:57:40.269Z,14.30
2022-07-27T02:00:12.107Z,12.27
2022-07-27T02:02:41.295Z,11.43
2022-07-27T02:05:12.221Z,11.60
2022-07-27T02:07:41.543Z,11.18
2022-07-27T02:10:10.297Z,12.40
2022-07-27T02:12:38.734Z,10.95
2022-07-27T02:15:19.564Z,13.30
2022-07-27T02:17:49.293Z,11.45
2022-07-27T02:20:21.389Z,12.27
2022-07-27T02:22:50.073Z,12.23
2022-07-27T02:25:19.594Z,12.60
2022-07-27T02:27:47.920Z,11.82
2022-07-27T02:30:17.885Z,12.82
2022-07-27T02:32:45.458Z,13.07
2022-07-27T02:35:19.912Z,11.68
2022-07-27T02:37:49.115Z,11.20
2022-07-27T02:40:18.185Z,10.68
2022-07-27T02:42:47.331Z,16.30
2022-07-27T02:45:16.320Z,14.85
2022-07-27T02:47:44.900Z,16.17
2022-07-27T02:50:12.753Z,15.75
2022-07-27T02:52:41.161Z,15.10
2022-07-27T02:55:10.618Z,15.38
2022-07-27T02:57:41.285Z,15.25
2022-07-27T03:00:14.423Z,15.90
2022-07-27T03:02:42.030Z,16.13
2022-07-27T03:05:11.029Z,14.75
2022-07-27T03:07:38.845Z,15.52
2022-07-27T03:10:07.178Z,13.18
2022-07-27T03:12:34.874Z,13.43
2022-07-27T03:15:02.293Z,14.52
2022-07-27T03:17:29.663Z,11.27
2022-07-27T03:19:57.159Z,12.52
2022-07-27T03:22:24.472Z,14.15
2022-07-27T03:24:51.793Z,12.15
2022-07-27T03:27:19.271Z,13.38
2022-07-27T03:29:46.627Z,14.40
2022-07-27T03:32:14.032Z,14.90
2022-07-27T03:34:41.484Z,12.80
2022-07-27T03:37:08.845Z,13.27
2022-07-27T03:39:36.564Z,14.13
2022-07-27T03:42:04.583Z,11.50
2022-07-27T03:44:32.057Z,14.02
2022-07-27T03:46:59.652Z,12.68
2022-07-27T03:49:27.354Z,13.68
2022-07-27T03:51:54.686Z,15.05
2022-07-27T03:54:22.130Z,12.98
2022-07-27T03:56:49.636Z,11.13
2022-07-27T03:59:17.047Z,11.18
2022-07-27T04:01:44.466Z,8.82
2022-07-27T04:04:12.138Z,10.60
2022-07-27T04:06:39.520Z,9.00
2022-07-27T04:09:08.655Z,13.48
2022-07-27T04:11:37.840Z,12.77
2022-07-27T04:14:16.940Z,11.68
2022-07-27T04:16:44.588Z,11.95
2022-07-27T04:19:12.145Z,10.85
2022-07-27T04:21:39.719Z,11.27
2022-07-27T04:24:07.837Z,13.23
2022-07-27T04:26:35.181Z,12.75
2022-07-27T04:29:02.878Z,11.35
2022-07-27T04:31:30.900Z,13.95
2022-07-27T04:33:58.449Z,13.75
2022-07-27T04:36:25.831Z,13.85
2022-07-27T04:38:53.375Z,12.02
2022-07-27T04:41:21.196Z,12.65
2022-07-27T04:43:48.578Z,14.10
2022-07-27T04:46:16.581Z,32.50
2022-07-27T04:48:49.090Z,23.67
2022-07-27T04:51:18.472Z,17.58
2022-07-27T04:53:52.783Z,16.02
2022-07-27T04:56:27.538Z,14.02
2022-07-27T04:58:56.183Z,15.68
2022-07-27T05:01:23.856Z,15.80
2022-07-27T05:03:52.552Z,14.18
2022-07-27T05:06:20.353Z,15.05
2022-07-27T05:08:47.651Z,17.38
2022-07-27T05:11:15.495Z,15.65
2022-07-27T05:13:42.855Z,16.77
2022-07-27T05:16:11.375Z,16.10
2022-07-27T05:18:40.181Z,16.10
2022-07-27T05:21:09.755Z,32.10
2022-07-27T05:23:37.140Z,23.65
2022-07-27T05:26:05.119Z,17.48
2022-07-27T05:28:32.505Z,15.32
2022-07-27T05:30:59.977Z,15.27
2022-07-27T05:33:27.635Z,12.18
2022-07-27T05:35:57.260Z,11.95
2022-07-27T05:38:24.467Z,14.10
2022-07-27T05:40:53.336Z,15.27
2022-07-27T05:43:20.675Z,21.67
2022-07-27T05:45:48.174Z,17.55
2022-07-27T05:48:16.045Z,14.77
2022-07-27T05:50:43.896Z,14.38
2022-07-27T05:53:11.236Z,14.95
2022-07-27T05:55:38.726Z,21.33
2022-07-27T05:58:06.392Z,22.45
2022-07-27T06:00:34.398Z,21.98
2022-07-27T06:03:01.992Z,19.73
2022-07-27T06:05:29.413Z,15.65
2022-07-27T06:07:59.457Z,16.90
2022-07-27T06:10:32.525Z,15.55
2022-07-27T06:13:01.415Z,15.50
2022-07-27T06:15:28.962Z,13.10
2022-07-27T06:17:56.647Z,18.42
2022-07-27T06:20:25.446Z,20.90
2022-07-27T06:22:57.432Z,20.73
2022-07-27T06:25:34.050Z,12.90
2022-07-27T06:28:06.704Z,13.10
2022-07-27T06:30:34.144Z,12.70
2022-07-27T06:33:06.721Z,14.57
2022-07-27T06:35:37.763Z,12.68
2022-07-27T06:38:05.676Z,15.73
2022-07-27T06:40:32.940Z,14.93
2022-07-27T06:43:00.713Z,18.95
2022-07-27T06:45:28.173Z,15.80
2022-07-27T06:47:55.523Z,16.95
2022-07-27T06:50:23.691Z,14.65
2022-07-27T06:52:51.011Z,11.88
2022-07-27T06:55:18.381Z,10.10
2022-07-27T06:57:46.644Z,14.23
2022-07-27T07:00:15.327Z,11.30
2022-07-27T07:03:01.119Z,9.23
2022-07-27T07:05:29.431Z,14.85
2022-07-27T07:07:57.534Z,12.35
2022-07-27T07:10:26.224Z,12.85
2022-07-27T07:12:56.295Z,12.30
2022-07-27T07:15:26.907Z,11.23
2022-07-27T07:17:54.748Z,15.43
2022-07-27T07:20:22.957Z,12.68
2022-07-27T07:22:50.987Z,17.65
2022-07-27T07:25:18.594Z,19.73
2022-07-27T07:27:45.910Z,16.60
2022-07-27T07:30:13.554Z,14.98
2022-07-27T07:32:41.091Z,14.98
2022-07-27T07:35:09.286Z,16.20
2022-07-27T07:37:36.527Z,15.98
2022-07-27T07:40:32.565Z,15.45
2022-07-27T07:42:56.785Z,15.50
2022-07-27T07:45:25.210Z,23.60
2022-07-27T07:47:54.107Z,18.85
2022-07-27T07:50:22.414Z,18.42
2022-07-27T07:52:52.386Z,18.90
2022-07-27T07:55:21.896Z,18.67
2022-07-27T07:57:50.682Z,18.98
2022-07-27T08:00:19.638Z,19.25
2022-07-27T08:02:54.419Z,20.52
2022-07-27T08:05:22.796Z,21.70
2022-07-27T08:07:50.695Z,20.48
2022-07-27T08:10:21.811Z,19.60
2022-07-27T08:12:54.604Z,20.75
2022-07-27T08:15:34.808Z,19.77
2022-07-27T08:18:05.697Z,17.63
2022-07-27T08:20:34.341Z,15.43
2022-07-27T08:23:02.307Z,16.45
2022-07-27T08:25:30.197Z,21.20
2022-07-27T08:27:58.796Z,14.13
2022-07-27T08:30:27.223Z,13.43
2022-07-27T08:33:01.736Z,13.75
2022-07-27T08:35:31.243Z,20.33
2022-07-27T08:38:00.641Z,15.27
2022-07-27T08:40:39.605Z,12.43
2022-07-27T08:43:09.799Z,14.02
2022-07-27T08:45:38.655Z,14.00
2022-07-27T08:48:06.581Z,14.35
2022-07-27T08:50:35.441Z,14.43
2022-07-27T08:53:12.525Z,14.10
2022-07-27T08:55:44.227Z,15.63
2022-07-27T08:58:13.775Z,16.05
2022-07-27T09:00:45.930Z,18.35
2022-07-27T09:03:19.564Z,18.58
2022-07-27T09:05:56.515Z,15.88
2022-07-27T09:08:31.118Z,15.38
2022-07-27T09:11:00.462Z,13.77
2022-07-27T09:13:33.420Z,11.35
2022-07-27T09:16:23.501Z,14.93
2022-07-27T09:19:10.653Z,15.45
2022-07-27T09:21:38.531Z,16.40
2022-07-27T09:24:29.744Z,15.40
2022-07-27T09:27:05.958Z,18.08
2022-07-27T09:29:37.242Z,19.88
2022-07-27T09:32:15.828Z,14.88
2022-07-27T09:34:43.872Z,13.65
2022-07-27T09:37:12.536Z,13.60
2022-07-27T09:39:40.052Z,13.45
2022-07-27T09:43:02.774Z,14.45
2022-07-27T09:45:04.475Z,13.60
2022-07-27T09:47:34.578Z,13.10
2022-07-27T09:50:29.039Z,13.25
2022-07-27T09:53:41.740Z,11.85
2022-07-27T09:56:15.057Z,11.48
2022-07-27T09:58:50.363Z,11.00
2022-07-27T10:01:29.335Z,11.50
2022-07-27T10:04:03.219Z,9.20
2022-07-27T10:06:42.727Z,10.27
2022-07-27T10:09:22.880Z,11.40
2022-07-27T10:11:51.228Z,10.60
2022-07-27T10:14:18.542Z,12.55
2022-07-27T10:16:50.988Z,10.07
2022-07-27T10:19:47.695Z,8.90
2022-07-27T10:22:15.367Z,10.23
2022-07-27T10:24:43.765Z,8.02
2022-07-27T10:27:30.928Z,8.85
2022-07-27T10:29:59.198Z,8.77
2022-07-27T10:32:33.677Z,6.63
2022-07-27T10:35:02.126Z,18.88
2022-07-27T10:37:34.900Z,13.70
2022-07-27T10:40:26.336Z,9.13
2022-07-27T10:43:18.616Z,6.60
2022-07-27T10:46:01.413Z,6.63
2022-07-27T10:48:47.903Z,7.93
2022-07-27T10:51:17.540Z,7.13
2022-07-27T10:56:48.180Z,5.85
2022-07-27T10:59:51.241Z,7.35
2022-07-27T11:02:41.708Z,6.65
2022-07-27T11:05:32.741Z,6.55
2022-07-27T11:10:48.887Z,6.55
2022-07-27T11:13:22.175Z,5.90
2022-07-27T11:16:23.326Z,6.20
2022-07-27T11:19:05.145Z,10.52
2022-07-27T11:21:38.581Z,6.20
2022-07-27T11:24:19.682Z,12.45
2022-07-27T11:26:50.418Z,6.05
2022-07-27T11:29:22.467Z,5.28
2022-07-27T11:31:57.025Z,5.63
2022-07-27T11:34:35.066Z,5.07
2022-07-27T11:37:13.870Z,5.18
2022-07-27T11:39:59.903Z,4.05
2022-07-27T11:42:39.270Z,4.38
2022-07-27T11:45:07.851Z,3.70
2022-07-27T11:47:37.069Z,4.90
2022-07-27T11:50:08.515Z,3.95
2022-07-27T11:52:36.409Z,5.13
2022-07-27T11:55:04.154Z,12.23
2022-07-27T11:57:33.922Z,7.47
2022-07-27T12:00:02.287Z,6.03
2022-07-27T12:02:29.707Z,4.60
2022-07-27T12:05:02.556Z,4.30
2022-07-27T12:07:33.818Z,4.15
2022-07-27T12:10:09.704Z,4.57
2022-07-27T12:12:38.285Z,4.22
2022-07-27T12:18:06.799Z,4.20
2022-07-27T12:20:36.723Z,3.83
2022-07-27T12:23:07.487Z,4.15
2022-07-27T12:25:35.774Z,3.90
2022-07-27T12:28:08.556Z,4.35
2022-07-27T12:30:44.758Z,7.43
2022-07-27T12:33:38.151Z,4.15
2022-07-27T12:36:08.555Z,5.63
2022-07-27T12:38:46.062Z,6.35
2022-07-27T12:41:32.693Z,4.20
2022-07-27T12:44:15.819Z,12.23
2022-07-27T12:47:02.554Z,7.97
2022-07-27T12:49:40.862Z,10.05
2022-07-27T12:52:11.237Z,11.25
2022-07-27T12:54:39.057Z,6.60
2022-07-27T12:57:06.590Z,5.78
2022-07-27T12:59:34.050Z,5.78
2022-07-27T13:02:01.369Z,5.72
2022-07-27T13:04:28.691Z,5.10
2022-07-27T13:06:56.165Z,24.40
2022-07-27T13:09:23.509Z,8.93
2022-07-27T13:11:50.744Z,5.93
2022-07-27T13:14:18.210Z,8.95
2022-07-27T13:16:45.496Z,8.68
2022-07-27T13:19:15.594Z,6.40
2022-07-27T13:21:43.631Z,4.53
2022-07-27T13:24:11.553Z,5.07
2022-07-27T13:26:39.565Z,5.75
2022-07-27T13:29:07.280Z,5.45
2022-07-27T13:31:34.736Z,5.47
2022-07-27T13:34:02.103Z,4.35
2022-07-27T13:36:29.700Z,4.63
2022-07-27T13:38:56.953Z,4.18
2022-07-27T13:41:24.267Z,4.10
2022-07-27T13:43:51.834Z,4.75
2022-07-27T13:46:19.214Z,3.90
2022-07-27T13:48:46.710Z,10.07
2022-07-27T13:51:14.299Z,4.30
2022-07-27T13:53:41.553Z,6.53
2022-07-27T13:56:09.319Z,5.00
2022-07-27T13:58:41.039Z,5.30
2022-07-27T14:01:09.009Z,4.68
2022-07-27T14:03:36.924Z,4.50
2022-07-27T14:06:04.577Z,13.77
2022-07-27T14:08:34.037Z,7.15
2022-07-27T14:11:01.323Z,4.18
2022-07-27T14:13:32.849Z,4.53
2022-07-27T14:16:01.682Z,3.90
2022-07-27T14:18:32.396Z,7.13
2022-07-27T14:21:04.091Z,4.30
2022-07-27T14:23:33.415Z,9.85
2022-07-27T14:26:03.620Z,4.70
2022-07-27T14:28:31.873Z,4.15
2022-07-27T14:31:00.859Z,3.80
2022-07-27T14:33:33.299Z,4.00
2022-07-27T14:36:07.435Z,3.80
2022-07-27T14:38:37.099Z,4.28
2022-07-27T14:41:06.194Z,3.58
2022-07-27T14:43:33.813Z,3.38
2022-07-27T14:46:01.716Z,3.67
2022-07-27T14:48:48.927Z,5.13
2022-07-27T14:51:16.776Z,18.35
2022-07-27T14:53:44.133Z,7.55
2022-07-27T14:56:11.519Z,5.05
2022-07-27T14:58:42.215Z,4.40
2022-07-27T15:01:09.979Z,6.85
2022-07-27T15:03:37.400Z,4.80
2022-07-27T15:06:05.434Z,4.30
2022-07-27T15:08:32.926Z,3.60
2022-07-27T15:11:00.295Z,3.10
2022-07-27T15:13:27.936Z,3.83
2022-07-27T15:15:57.430Z,4.45
2022-07-27T15:18:24.894Z,6.55
2022-07-27T15:20:52.441Z,5.50
2022-07-27T15:23:19.764Z,3.90
2022-07-27T15:25:47.351Z,4.20
2022-07-27T15:28:15.599Z,4.03
2022-07-27T15:30:42.914Z,5.35
2022-07-27T15:33:10.372Z,6.57
2022-07-27T15:35:38.047Z,6.93
2022-07-27T15:38:05.499Z,4.65
2022-07-27T15:40:39.119Z,2.90
2022-07-27T15:43:13.087Z,4.40
2022-07-27T15:45:43.104Z,4.00
2022-07-27T15:48:12.745Z,4.15
2022-07-27T15:50:43.732Z,3.55
2022-07-27T15:53:12.104Z,7.63
2022-07-27T15:55:39.860Z,6.63
2022-07-27T15:58:07.775Z,5.43
2022-07-27T16:00:40.570Z,3.78
2022-07-27T16:03:10.653Z,2.83
2022-07-27T16:05:40.623Z,3.92
2022-07-27T16:08:10.025Z,2.17
2022-07-27T16:10:39.456Z,2.35
2022-07-27T16:13:08.946Z,1.92
2022-07-27T16:15:56.146Z,1.60
2022-07-27T16:18:23.771Z,2.72
2022-07-27T16:20:52.536Z,9.27
2022-07-27T16:23:22.286Z,6.50
2022-07-27T16:26:04.402Z,3.80
2022-07-27T16:28:36.002Z,3.42
2022-07-27T16:31:05.773Z,3.00
2022-07-27T16:33:44.635Z,2.33
2022-07-27T16:36:12.930Z,2.60
2022-07-27T16:38:49.715Z,2.85
2022-07-27T16:41:21.074Z,2.70
2022-07-27T16:43:49.637Z,7.10
2022-07-27T16:46:17.353Z,5.07
2022-07-27T16:48:45.620Z,4.55
2022-07-27T16:51:15.067Z,5.13
2022-07-27T16:53:46.288Z,4.05
2022-07-27T16:56:14.702Z,2.03
2022-07-27T16:58:43.504Z,2.75
2022-07-27T17:01:22.039Z,6.75
2022-07-27T17:03:57.855Z,5.95
2022-07-27T17:06:26.704Z,2.40
2022-07-27T17:08:54.325Z,2.80
2022-07-27T17:11:22.561Z,2.92
2022-07-27T17:13:58.904Z,4.38
2022-07-27T17:16:28.894Z,4.03
2022-07-27T17:18:56.909Z,3.45
2022-07-27T17:21:24.478Z,3.58
2022-07-27T17:23:52.008Z,3.20
2022-07-27T17:26:19.759Z,2.78
2022-07-27T17:28:50.162Z,2.72
2022-07-27T17:31:18.950Z,2.28
2022-07-27T17:33:46.297Z,2.22
2022-07-27T17:36:15.353Z,3.05
2022-07-27T17:38:44.934Z,3.40
2022-07-27T17:41:14.598Z,2.72
2022-07-27T17:43:42.569Z,2.80
2022-07-27T17:46:12.753Z,3.03
2022-07-27T17:48:41.238Z,2.80
2022-07-27T17:51:10.648Z,3.63
2022-07-27T17:53:39.073Z,3.25
2022-07-27T17:56:08.429Z,4.60
2022-07-27T17:58:35.947Z,2.80
2022-07-27T18:01:05.465Z,3.08
2022-07-27T18:03:34.990Z,2.70
2022-07-27T18:06:02.872Z,2.22
2022-07-27T18:08:30.369Z,2.53
2022-07-27T18:10:57.690Z,2.47
2022-07-27T18:13:39.232Z,2.30
2022-07-27T18:16:13.327Z,1.80
2022-07-27T18:18:42.307Z,1.92
2022-07-27T18:21:11.131Z,2.10
2022-07-27T18:23:38.803Z,1.90
2022-07-27T18:26:06.993Z,2.33
2022-07-27T18:28:39.318Z,2.28
2022-07-27T18:31:08.334Z,2.53
2022-07-27T18:33:37.026Z,2.63
2022-07-27T18:36:06.483Z,3.33
2022-07-27T18:38:33.836Z,6.75
2022-07-27T18:41:01.431Z,5.30
2022-07-27T18:43:28.652Z,4.20
2022-07-27T18:45:56.324Z,3.33
2022-07-27T18:48:23.763Z,6.78
2022-07-27T18:50:53.590Z,4.50
2022-07-27T18:53:21.093Z,3.10
2022-07-27T18:55:52.750Z,2.33
2022-07-27T18:58:23.065Z,3.38
2022-07-27T19:00:50.950Z,2.55
2022-07-27T19:03:19.747Z,3.70
2022-07-27T19:05:49.489Z,3.22
2022-07-27T19:08:21.792Z,4.60
2022-07-27T19:10:49.202Z,2.85
2022-07-27T19:13:16.834Z,2.22
2022-07-27T19:15:45.519Z,2.58
2022-07-27T19:18:12.976Z,2.35
2022-07-27T19:20:41.512Z,2.35
2022-07-27T19:23:09.087Z,2.40
2022-07-27T19:25:36.423Z,3.00
2022-07-27T19:28:04.738Z,2.70
2022-07-27T19:30:32.434Z,2.60
2022-07-27T19:33:00.811Z,3.08
2022-07-27T19:35:28.468Z,2.70
2022-07-27T19:37:56.189Z,3.05
2022-07-27T19:43:11.264Z,2.55
2022-07-27T19:45:38.609Z,2.50
2022-07-27T19:48:06.841Z,2.20
2022-07-27T19:50:35.022Z,2.30
2022-07-27T19:53:03.326Z,1.95
2022-07-27T19:55:30.827Z,1.88
2022-07-27T19:57:58.515Z,2.22
2022-07-27T20:00:26.001Z,2.90
2022-07-27T20:02:53.489Z,3.00
2022-07-27T20:05:21.781Z,2.75
2022-07-27T20:07:49.041Z,2.67
2022-07-27T20:10:16.706Z,2.58
2022-07-27T20:12:44.252Z,3.28
2022-07-27T20:15:11.669Z,3.22
2022-07-27T20:17:40.424Z,2.75
2022-07-27T20:20:10.838Z,3.00
2022-07-27T20:22:41.206Z,2.50
2022-07-27T20:25:14.929Z,4.15
2022-07-27T20:27:42.883Z,3.78
2022-07-27T20:30:11.816Z,3.85
2022-07-27T20:32:39.126Z,4.07
2022-07-27T20:35:07.287Z,6.00
2022-07-27T20:37:34.921Z,4.30
2022-07-27T20:40:03.178Z,3.88
2022-07-27T20:42:30.893Z,4.35
2022-07-27T20:44:58.425Z,5.82
2022-07-27T20:47:28.698Z,3.55
2022-07-27T20:49:58.656Z,3.33
2022-07-27T20:52:25.848Z,2.92
2022-07-27T20:54:55.928Z,2.83
2022-07-27T20:57:23.282Z,2.90
2022-07-27T20:59:50.514Z,3.42
2022-07-27T21:02:17.889Z,2.58
2022-07-27T21:04:45.460Z,2.42
2022-07-27T21:07:12.880Z,3.72
2022-07-27T21:09:40.284Z,2.92
2022-07-27T21:12:08.099Z,2.45
2022-07-27T21:14:35.337Z,2.55
2022-07-27T21:17:02.692Z,4.47
2022-07-27T21:19:30.287Z,11.95
2022-07-27T21:21:57.525Z,6.10
2022-07-27T21:24:26.229Z,5.95
2022-07-27T21:26:54.175Z,5.03
2022-07-27T21:29:26.087Z,3.40
2022-07-27T21:31:53.652Z,3.92
2022-07-27T21:34:21.700Z,5.53
2022-07-27T21:36:49.909Z,4.50
2022-07-27T21:39:18.212Z,3.60
2022-07-27T21:41:46.014Z,4.63
2022-07-27T21:44:13.808Z,4.38
2022-07-27T21:46:41.440Z,3.45
2022-07-27T21:49:10.449Z,7.78
2022-07-27T21:51:37.823Z,4.38
2022-07-27T21:54:05.699Z,3.10
2022-07-27T21:56:41.899Z,5.35
2022-07-27T21:59:10.505Z,3.45
2022-07-27T22:01:38.058Z,2.70
2022-07-27T22:04:06.378Z,3.08
2022-07-27T22:06:33.788Z,1.92
2022-07-27T22:09:01.256Z,1.83
2022-07-27T22:11:28.696Z,2.03
2022-07-27T22:13:56.060Z,3.30
2022-07-27T22:16:23.803Z,3.70
2022-07-27T22:18:51.330Z,2.90
2022-07-27T22:21:18.699Z,3.40
2022-07-27T22:23:49.157Z,4.78
2022-07-27T22:26:17.559Z,3.38
2022-07-27T22:28:49.930Z,2.70
2022-07-27T22:31:22.614Z,2.55
2022-07-27T22:33:51.124Z,2.83
2022-07-27T22:36:19.105Z,2.35
2022-07-27T22:38:46.507Z,1.95
2022-07-27T22:41:14.147Z,2.40
2022-07-27T22:43:41.848Z,2.00
2022-07-27T22:46:10.168Z,2.20
2022-07-27T22:48:38.090Z,1.90
2022-07-27T22:51:05.606Z,1.50
2022-07-27T22:53:32.965Z,1.65
2022-07-27T22:56:00.543Z,2.00
2022-07-27T22:58:28.203Z,5.05
2022-07-27T23:00:59.346Z,8.40
2022-07-27T23:03:27.485Z,3.35
2022-07-27T23:05:54.973Z,2.30
2022-07-27T23:08:23.152Z,1.92
2022-07-27T23:10:50.443Z,1.65
2022-07-27T23:13:23.011Z,1.67
2022-07-27T23:15:50.655Z,2.30
2022-07-27T23:18:18.341Z,9.32
2022-07-27T23:20:45.874Z,7.32
2022-07-27T23:23:16.302Z,5.68
2022-07-27T23:25:47.719Z,7.60
2022-07-27T23:28:16.230Z,5.22
2022-07-27T23:30:44.158Z,3.80
2022-07-27T23:33:11.445Z,4.00
2022-07-27T23:35:39.010Z,3.80
2022-07-27T23:38:06.645Z,2.90
2022-07-27T23:40:34.111Z,2.50
2022-07-27T23:43:02.436Z,4.50
2022-07-27T23:45:29.659Z,10.25
2022-07-27T23:47:56.925Z,9.98
2022-07-27T23:50:24.426Z,7.30
2022-07-27T23:52:52.132Z,8.35
2022-07-27T23:55:19.378Z,7.78
2022-07-27T23:57:47.218Z,7.20
